createdAt,value
2018-11-27T00:01:27.168Z,100002.47
2018-11-27T00:06:45.818Z,100004.13
2018-11-27T00:12:04.449Z,99999.80
2018-11-27T00:17:22.986Z,100002.73
2018-11-27T00:22:41.642Z,100010.59
2018-11-27T00:28:00.141Z,100023.39
2018-11-27T00:33:18.633Z,100029.34
2018-11-27T00:38:37.200Z,100024.97
2018-11-27T00:43:55.700Z,100028.74
2018-11-27T00:49:14.303Z,100023.90
2018-11-27T00:54:32.818Z,100036.28
2018-11-27T00:59:51.418Z,100037.66
2018-11-27T01:05:13.788Z,100041.76
2018-11-27T01:10:32.350Z,100041.23
2018-11-27T01:15:51.150Z,100046.56
2018-11-27T01:21:09.732Z,100050.02
2018-11-27T01:26:28.377Z,100047.83
2018-11-27T01:31:46.952Z,100054.91
2018-11-27T01:37:05.895Z,100054.86
2018-11-27T01:42:24.470Z,100056.16
2018-11-27T01:47:43.054Z,100054.30
2018-11-27T01:53:01.650Z,100053.55
2018-11-27T01:58:20.177Z,100061.67
2018-11-27T02:03:38.796Z,100062.20
2018-11-27T02:08:57.361Z,100066.14
2018-11-27T02:14:16.649Z,100065.20
2018-11-27T02:19:35.354Z,100067.36
2018-11-27T02:24:53.993Z,100059.95
2018-11-27T02:30:14.201Z,100049.78
2018-11-27T02:35:32.773Z,100051.09
2018-11-27T02:40:51.261Z,100053.95
2018-11-27T02:46:09.770Z,100059.70
2018-11-27T02:51:28.293Z,100057.25
2018-11-27T02:56:46.784Z,100061.27
2018-11-27T03:02:05.360Z,100064.90
2018-11-27T03:07:23.972Z,100069.12
2018-11-27T03:12:42.541Z,100069.05
2018-11-27T03:18:01.120Z,100077.67
2018-11-27T03:23:19.616Z,100082.61
2018-11-27T03:28:38.140Z,100088.22
2018-11-27T03:33:56.770Z,100092.68
2018-11-27T03:39:16.247Z,100092.91
2018-11-27T03:44:34.932Z,100082.36
2018-11-27T03:49:53.517Z,100087.84
2018-11-27T03:55:12.850Z,100086.47
2018-11-27T04:00:31.780Z,100096.75
2018-11-27T04:05:50.435Z,100096.88
2018-11-27T04:11:09.013Z,100104.54
2018-11-27T04:16:27.590Z,100114.81
2018-11-27T04:21:46.107Z,100111.55
2018-11-27T04:27:04.904Z,100116.94
2018-11-27T04:32:23.485Z,100127.02
2018-11-27T04:37:42.075Z,100124.57
2018-11-27T04:43:00.629Z,100122.81
2018-11-27T04:48:19.231Z,100131.22
2018-11-27T04:53:37.874Z,100130.98
2018-11-27T04:58:56.414Z,100128.66
2018-11-27T05:04:14.928Z,100145.31
2018-11-27T05:09:33.469Z,100151.12
2018-11-27T05:14:52.022Z,100147.11
2018-11-27T05:20:11.733Z,100150.69
2018-11-27T05:25:30.293Z,100158.06
2018-11-27T05:30:48.926Z,100162.11
2018-11-27T05:36:07.478Z,100165.38
2018-11-27T05:41:26.009Z,100168.75
2018-11-27T05:46:44.498Z,100170.47
2018-11-27T05:52:03.060Z,100172.74
2018-11-27T05:57:21.621Z,100181.75
2018-11-27T06:02:40.390Z,100183.98
2018-11-27T06:07:58.967Z,100188.92
2018-11-27T06:13:17.558Z,100184.80
2018-11-27T06:18:36.126Z,100193.22
2018-11-27T06:23:54.700Z,100200.17
2018-11-27T06:29:13.245Z,100198.28
2018-11-27T06:34:31.998Z,100212.87
2018-11-27T06:39:50.637Z,100217.95
2018-11-27T06:45:11.541Z,100230.16
2018-11-27T06:50:30.081Z,100231.53
2018-11-27T06:55:48.691Z,100242.00
2018-11-27T07:01:07.353Z,100243.22
2018-11-27T07:06:25.877Z,100258.61
2018-11-27T07:11:44.384Z,100256.89
2018-11-27T07:17:02.951Z,100262.25
2018-11-27T07:22:21.615Z,100275.13
2018-11-27T07:27:40.470Z,100291.59
2018-11-27T07:32:59.051Z,100297.30
2018-11-27T07:38:17.590Z,100293.69
2018-11-27T07:43:36.122Z,100299.56
2018-11-27T07:48:54.653Z,100305.64
2018-11-27T07:54:13.203Z,100318.65
2018-11-27T07:59:32.073Z,100306.38
2018-11-27T08:04:50.663Z,100309.17
2018-11-27T08:10:13.613Z,100318.68
2018-11-27T08:20:56.242Z,100324.42
2018-11-27T08:26:14.776Z,100320.19
2018-11-27T08:31:33.918Z,100331.67
2018-11-27T08:36:52.453Z,100338.16
2018-11-27T08:42:11.029Z,100342.03
2018-11-27T08:47:29.567Z,100352.95
2018-11-27T08:52:53.321Z,100356.07
2018-11-27T08:58:18.114Z,100350.23
2018-11-27T09:03:36.693Z,100369.34
2018-11-27T09:08:55.257Z,100365.45
2018-11-27T09:14:14.130Z,100360.36
2018-11-27T09:19:32.399Z,100361.03
2018-11-27T09:24:50.906Z,100353.62
2018-11-27T09:30:14.788Z,100368.70
2018-11-27T09:35:33.397Z,100381.20
2018-11-27T09:40:51.974Z,100383.06
2018-11-27T09:46:10.496Z,100396.48
2018-11-27T09:51:29.033Z,100396.37
2018-11-27T09:56:47.744Z,100394.64
2018-11-27T10:02:06.343Z,100388.67
2018-11-27T10:07:24.911Z,100386.48
2018-11-27T10:12:43.842Z,100383.95
2018-11-27T10:18:02.917Z,100377.44
2018-11-27T10:23:21.553Z,100368.93
2018-11-27T10:28:40.103Z,100370.17
2018-11-27T10:33:58.617Z,100363.06
2018-11-27T10:39:17.187Z,100365.48
2018-11-27T10:44:36.304Z,100366.95
2018-11-27T10:49:54.938Z,100359.63
2018-11-27T10:55:15.217Z,100358.66
2018-11-27T11:00:39.273Z,100358.35
2018-11-27T11:05:57.944Z,100364.62
2018-11-27T11:11:16.429Z,100367.98
2018-11-27T11:16:34.921Z,100365.09
2018-11-27T11:21:53.425Z,100374.20
2018-11-27T11:27:11.936Z,100387.73
2018-11-27T11:32:30.546Z,100391.41
2018-11-27T11:37:49.553Z,100394.00
2018-11-27T11:43:08.289Z,100395.56
2018-11-27T11:48:26.903Z,100389.66
2018-11-27T11:53:45.553Z,100396.27
2018-11-27T11:59:04.129Z,100391.10
2018-11-27T12:04:22.683Z,100386.84
2018-11-27T12:09:41.196Z,100394.73
2018-11-27T12:14:59.813Z,100399.47
2018-11-27T12:20:19.691Z,100393.82
2018-11-27T12:25:38.777Z,100395.73
2018-11-27T12:30:57.331Z,100407.14
2018-11-27T12:36:15.823Z,100407.75
2018-11-27T12:41:34.400Z,100405.77
2018-11-27T12:46:52.922Z,100409.31
2018-11-27T12:52:11.459Z,100416.62
2018-11-27T12:57:30.023Z,100420.11
2018-11-27T13:02:49.047Z,100417.91
2018-11-27T13:08:23.702Z,100432.78
2018-11-27T13:13:42.481Z,100425.84
2018-11-27T13:19:01.014Z,100430.00
2018-11-27T13:24:19.611Z,100424.00
2018-11-27T13:29:38.285Z,100426.67
2018-11-27T13:34:56.836Z,100419.09
2018-11-27T13:40:15.480Z,100421.06
2018-11-27T13:45:34.049Z,100428.16
2018-11-27T13:50:52.627Z,100428.77
2018-11-27T13:56:11.219Z,100430.66
2018-11-27T14:01:29.733Z,100422.73
2018-11-27T14:06:48.249Z,100421.55
2018-11-27T14:12:07.029Z,100426.75
2018-11-27T14:17:25.679Z,100428.72
2018-11-27T14:22:46.036Z,100442.11
2018-11-27T14:28:04.605Z,100443.69
2018-11-27T14:33:23.078Z,100450.13
2018-11-27T14:38:42.664Z,100447.38
2018-11-27T14:44:01.401Z,100450.17
2018-11-27T14:49:20.155Z,100442.73
2018-11-27T14:54:40.473Z,100450.66
2018-11-27T14:59:59.146Z,100457.53
2018-11-27T15:05:26.112Z,100465.25
2018-11-27T15:10:44.777Z,100471.02
2018-11-27T15:16:03.487Z,100475.62
2018-11-27T15:21:22.400Z,100472.11
2018-11-27T15:26:51.666Z,100474.99
2018-11-27T15:32:10.330Z,100476.61
2018-11-27T15:37:28.906Z,100489.02
2018-11-27T15:42:47.469Z,100482.58
2018-11-27T15:48:08.708Z,100492.31
2018-11-27T15:53:27.394Z,100486.50
2018-11-27T16:04:33.093Z,100471.71
2018-11-27T16:09:51.794Z,100467.13
2018-11-27T16:15:13.704Z,100481.68
2018-11-27T16:20:32.659Z,100480.72
2018-11-27T16:25:51.834Z,100473.80
2018-11-27T16:31:10.607Z,100476.96
2018-11-27T16:36:29.252Z,100495.05
2018-11-27T16:41:48.002Z,100500.78
2018-11-27T16:47:07.387Z,100485.19
2018-11-27T16:52:26.389Z,100485.40
2018-11-27T16:57:45.378Z,100495.75
2018-11-27T17:03:05.392Z,100485.30
2018-11-27T17:08:24.871Z,100483.55
2018-11-27T17:13:43.729Z,100482.67
2018-11-27T17:19:02.364Z,100483.98
2018-11-27T17:24:21.131Z,100486.14
2018-11-27T17:29:40.097Z,100483.33
2018-11-27T17:34:58.936Z,100491.72
2018-11-27T17:40:17.726Z,100501.66
2018-11-27T17:45:36.721Z,100493.19
2018-11-27T17:50:55.564Z,100500.12
2018-11-27T17:56:14.445Z,100502.19
2018-11-27T18:01:33.127Z,100505.20
2018-11-27T18:06:51.824Z,100500.81
2018-11-27T18:12:10.434Z,100507.61
2018-11-27T18:17:29.580Z,100512.86
2018-11-27T18:22:48.381Z,100509.61
2018-11-27T18:28:06.993Z,100500.31
2018-11-27T18:33:38.009Z,100501.05
2018-11-27T18:38:56.558Z,100496.02
2018-11-27T18:44:15.249Z,100497.85
2018-11-27T18:49:33.747Z,100498.18
2018-11-27T18:54:52.404Z,100501.20
2018-11-27T19:00:29.079Z,100503.07
2018-11-27T19:05:47.850Z,100485.45
2018-11-27T19:11:09.077Z,100480.63
2018-11-27T19:16:27.797Z,100476.86
2018-11-27T19:21:46.626Z,100478.66
2018-11-27T19:27:05.402Z,100480.58
2018-11-27T19:32:24.245Z,100477.83
2018-11-27T19:37:42.887Z,100470.25
2018-11-27T19:43:01.404Z,100469.09
2018-11-27T19:48:20.000Z,100474.05
2018-11-27T19:53:39.223Z,100485.13
2018-11-27T19:58:57.128Z,100504.48
2018-11-27T20:04:15.689Z,100504.62
2018-11-27T20:09:34.275Z,100490.40
2018-11-27T20:14:52.882Z,100492.84
2018-11-27T20:20:13.030Z,100496.88
2018-11-27T20:25:31.694Z,100497.85
2018-11-27T20:30:50.872Z,100492.47
2018-11-27T20:36:10.055Z,100489.66
2018-11-27T20:41:28.658Z,100483.80
2018-11-27T20:46:48.020Z,100489.28
2018-11-27T20:52:06.639Z,100501.56
2018-11-27T20:57:25.274Z,100506.68
2018-11-27T21:02:44.561Z,100503.72
2018-11-27T21:08:02.597Z,100500.06
2018-11-27T21:13:21.850Z,100501.27
2018-11-27T21:18:40.359Z,100506.66
2018-11-27T21:23:58.932Z,100499.23
2018-11-27T21:29:17.528Z,100495.81
2018-11-27T21:34:36.658Z,100501.73
2018-11-27T21:39:55.626Z,100511.71
2018-11-27T21:45:15.692Z,100516.00
2018-11-27T21:50:39.337Z,100517.57
2018-11-27T21:55:59.745Z,100511.41
2018-11-27T22:01:18.232Z,100510.45
2018-11-27T22:06:37.049Z,100519.98
2018-11-27T22:11:55.601Z,100508.46
2018-11-27T22:17:14.182Z,100512.28
2018-11-27T22:22:32.714Z,100505.32
2018-11-27T22:27:57.806Z,100510.70
2018-11-27T22:33:16.429Z,100505.95
2018-11-27T22:38:35.053Z,100496.91
2018-11-27T22:43:53.660Z,100500.98
2018-11-27T22:49:12.234Z,100512.98
2018-11-27T22:54:31.455Z,100513.89
2018-11-27T22:59:50.010Z,100515.70
2018-11-27T23:05:09.230Z,100512.55
2018-11-27T23:10:29.261Z,100504.59
2018-11-27T23:15:48.447Z,100495.81
2018-11-27T23:21:07.011Z,100502.75
2018-11-27T23:26:25.532Z,100490.12
2018-11-27T23:31:44.923Z,100483.63
2018-11-27T23:37:04.079Z,100481.08
2018-11-27T23:42:22.606Z,100473.40
2018-11-27T23:47:41.103Z,100475.54
2018-11-27T23:52:59.636Z,100469.62
2018-11-27T23:58:18.337Z,100468.85
